sensor_id;sensor_type;location;lat;lon;timestamp;temperature;humidity
63313;DHT22;49442;45.640;13.812;2024-01-07T00:01:59;8.50;99.90
63313;DHT22;49442;45.640;13.812;2024-01-07T00:04:24;8.40;99.90
63313;DHT22;49442;45.640;13.812;2024-01-07T00:06:50;8.40;99.90
63313;DHT22;49442;45.640;13.812;2024-01-07T00:09:17;8.40;99.90
63313;DHT22;49442;45.640;13.812;2024-01-07T00:11:42;8.30;99.90
63313;DHT22;49442;45.640;13.812;2024-01-07T00:14:08;8.20;99.90
63313;DHT22;49442;45.640;13.812;2024-01-07T00:16:34;8.20;99.90
63313;DHT22;49442;45.640;13.812;2024-01-07T00:19:00;8.20;99.90
63313;DHT22;49442;45.640;13.812;2024-01-07T00:21:25;8.10;99.90
63313;DHT22;49442;45.640;13.812;2024-01-07T00:23:51;8.00;99.90
63313;DHT22;49442;45.640;13.812;2024-01-07T00:26:17;8.00;99.90
63313;DHT22;49442;45.640;13.812;2024-01-07T00:28:42;8.00;99.90
63313;DHT22;49442;45.640;13.812;2024-01-07T00:31:08;8.00;99.90
63313;DHT22;49442;45.640;13.812;2024-01-07T00:33:35;8.00;99.90
63313;DHT22;49442;45.640;13.812;2024-01-07T00:36:01;8.10;99.90
63313;DHT22;49442;45.640;13.812;2024-01-07T00:38:27;8.10;99.90
63313;DHT22;49442;45.640;13.812;2024-01-07T00:40:53;8.20;99.90
63313;DHT22;49442;45.640;13.812;2024-01-07T00:43:19;8.20;99.90
63313;DHT22;49442;45.640;13.812;2024-01-07T00:45:44;8.20;99.90
63313;DHT22;49442;45.640;13.812;2024-01-07T00:48:10;8.20;99.90
63313;DHT22;49442;45.640;13.812;2024-01-07T00:50:36;8.20;99.90
63313;DHT22;49442;45.640;13.812;2024-01-07T00:53:01;8.20;99.90
63313;DHT22;49442;45.640;13.812;2024-01-07T00:55:27;8.10;99.90
63313;DHT22;49442;45.640;13.812;2024-01-07T00:57:53;8.10;99.90
63313;DHT22;49442;45.640;13.812;2024-01-07T01:00:19;8.00;99.90
63313;DHT22;49442;45.640;13.812;2024-01-07T01:02:45;8.00;99.90
63313;DHT22;49442;45.640;13.812;2024-01-07T01:05:11;7.90;99.90
63313;DHT22;49442;45.640;13.812;2024-01-07T01:07:37;7.80;99.90
63313;DHT22;49442;45.640;13.812;2024-01-07T01:10:03;7.80;99.90
63313;DHT22;49442;45.640;13.812;2024-01-07T01:12:29;7.70;99.90
63313;DHT22;49442;45.640;13.812;2024-01-07T01:14:54;7.70;99.90
63313;DHT22;49442;45.640;13.812;2024-01-07T01:17:20;7.60;99.90
63313;DHT22;49442;45.640;13.812;2024-01-07T01:19:46;7.60;99.90
63313;DHT22;49442;45.640;13.812;2024-01-07T01:22:11;7.50;99.90
63313;DHT22;49442;45.640;13.812;2024-01-07T01:24:38;7.50;99.90
63313;DHT22;49442;45.640;13.812;2024-01-07T01:27:04;7.50;99.90
63313;DHT22;49442;45.640;13.812;2024-01-07T01:29:29;7.50;99.90
63313;DHT22;49442;45.640;13.812;2024-01-07T01:31:55;7.50;99.90
63313;DHT22;49442;45.640;13.812;2024-01-07T01:34:21;7.60;99.90
63313;DHT22;49442;45.640;13.812;2024-01-07T01:36:47;7.50;99.90
63313;DHT22;49442;45.640;13.812;2024-01-07T01:39:12;7.50;99.90
63313;DHT22;49442;45.640;13.812;2024-01-07T01:41:39;7.50;99.90
63313;DHT22;49442;45.640;13.812;2024-01-07T01:44:05;7.40;99.90
63313;DHT22;49442;45.640;13.812;2024-01-07T01:46:31;7.40;99.90
63313;DHT22;49442;45.640;13.812;2024-01-07T01:48:58;7.40;99.90
63313;DHT22;49442;45.640;13.812;2024-01-07T01:51:24;7.30;99.90
63313;DHT22;49442;45.640;13.812;2024-01-07T01:53:50;7.30;99.90
63313;DHT22;49442;45.640;13.812;2024-01-07T01:56:18;7.30;99.90
63313;DHT22;49442;45.640;13.812;2024-01-07T01:58:46;7.30;99.90
63313;DHT22;49442;45.640;13.812;2024-01-07T02:01:13;7.30;99.90
63313;DHT22;49442;45.640;13.812;2024-01-07T02:03:39;7.30;99.90
63313;DHT22;49442;45.640;13.812;2024-01-07T02:06:05;7.20;99.90
63313;DHT22;49442;45.640;13.812;2024-01-07T02:08:31;7.20;99.90
63313;DHT22;49442;45.640;13.812;2024-01-07T02:10:57;7.20;99.90
63313;DHT22;49442;45.640;13.812;2024-01-07T02:13:22;7.20;99.90
63313;DHT22;49442;45.640;13.812;2024-01-07T02:15:48;7.10;99.90
63313;DHT22;49442;45.640;13.812;2024-01-07T02:18:14;7.10;99.90
63313;DHT22;49442;45.640;13.812;2024-01-07T02:20:40;7.00;99.90
63313;DHT22;49442;45.640;13.812;2024-01-07T02:23:05;7.00;99.90
63313;DHT22;49442;45.640;13.812;2024-01-07T02:25:36;7.00;99.90
63313;DHT22;49442;45.640;13.812;2024-01-07T02:28:01;7.00;99.90
63313;DHT22;49442;45.640;13.812;2024-01-07T02:30:27;6.90;99.90
63313;DHT22;49442;45.640;13.812;2024-01-07T02:32:53;7.00;99.90
63313;DHT22;49442;45.640;13.812;2024-01-07T02:35:18;7.00;99.90
63313;DHT22;49442;45.640;13.812;2024-01-07T02:37:44;6.90;99.90
63313;DHT22;49442;45.640;13.812;2024-01-07T02:40:10;6.90;99.90
63313;DHT22;49442;45.640;13.812;2024-01-07T02:42:36;6.90;99.90
63313;DHT22;49442;45.640;13.812;2024-01-07T02:45:02;7.00;99.90
63313;DHT22;49442;45.640;13.812;2024-01-07T02:47:27;7.00;99.90
63313;DHT22;49442;45.640;13.812;2024-01-07T02:49:53;7.10;99.90
63313;DHT22;49442;45.640;13.812;2024-01-07T02:52:19;7.10;99.90
63313;DHT22;49442;45.640;13.812;2024-01-07T02:54:44;7.10;99.90
63313;DHT22;49442;45.640;13.812;2024-01-07T02:57:10;7.10;99.90
63313;DHT22;49442;45.640;13.812;2024-01-07T02:59:36;7.20;99.90
63313;DHT22;49442;45.640;13.812;2024-01-07T03:02:01;7.20;99.90
63313;DHT22;49442;45.640;13.812;2024-01-07T03:04:27;7.30;99.90
63313;DHT22;49442;45.640;13.812;2024-01-07T03:06:53;7.30;99.90
63313;DHT22;49442;45.640;13.812;2024-01-07T03:09:18;7.30;99.90
63313;DHT22;49442;45.640;13.812;2024-01-07T03:11:44;7.30;99.90
63313;DHT22;49442;45.640;13.812;2024-01-07T03:14:10;7.30;99.90
63313;DHT22;49442;45.640;13.812;2024-01-07T03:16:35;7.30;99.90
63313;DHT22;49442;45.640;13.812;2024-01-07T03:19:01;7.40;99.90
63313;DHT22;49442;45.640;13.812;2024-01-07T03:21:28;7.40;99.90
63313;DHT22;49442;45.640;13.812;2024-01-07T03:23:54;7.40;99.90
63313;DHT22;49442;45.640;13.812;2024-01-07T03:26:21;7.40;99.90
63313;DHT22;49442;45.640;13.812;2024-01-07T03:28:47;7.50;99.90
63313;DHT22;49442;45.640;13.812;2024-01-07T03:31:14;7.50;99.90
63313;DHT22;49442;45.640;13.812;2024-01-07T03:33:42;7.50;99.90
63313;DHT22;49442;45.640;13.812;2024-01-07T03:36:12;7.50;99.90
63313;DHT22;49442;45.640;13.812;2024-01-07T03:38:39;7.50;99.90
63313;DHT22;49442;45.640;13.812;2024-01-07T03:41:06;7.50;99.90
63313;DHT22;49442;45.640;13.812;2024-01-07T03:43:32;7.50;99.90
63313;DHT22;49442;45.640;13.812;2024-01-07T03:45:58;7.50;99.90
63313;DHT22;49442;45.640;13.812;2024-01-07T03:48:24;7.50;99.90
63313;DHT22;49442;45.640;13.812;2024-01-07T03:50:49;7.50;99.90
63313;DHT22;49442;45.640;13.812;2024-01-07T03:53:15;7.50;99.90
63313;DHT22;49442;45.640;13.812;2024-01-07T03:55:41;7.50;99.90
63313;DHT22;49442;45.640;13.812;2024-01-07T03:58:07;7.50;99.90
63313;DHT22;49442;45.640;13.812;2024-01-07T04:00:33;7.50;99.90
63313;DHT22;49442;45.640;13.812;2024-01-07T04:02:59;7.50;99.90
63313;DHT22;49442;45.640;13.812;2024-01-07T04:05:25;7.50;99.90
63313;DHT22;49442;45.640;13.812;2024-01-07T04:07:50;7.50;99.90
63313;DHT22;49442;45.640;13.812;2024-01-07T04:10:16;7.50;99.90
63313;DHT22;49442;45.640;13.812;2024-01-07T04:12:42;7.50;99.90
63313;DHT22;49442;45.640;13.812;2024-01-07T04:15:08;7.50;99.90
63313;DHT22;49442;45.640;13.812;2024-01-07T04:17:34;7.50;99.90
63313;DHT22;49442;45.640;13.812;2024-01-07T04:20:00;7.50;99.90
63313;DHT22;49442;45.640;13.812;2024-01-07T04:22:26;7.60;99.90
63313;DHT22;49442;45.640;13.812;2024-01-07T04:24:51;7.60;99.90
63313;DHT22;49442;45.640;13.812;2024-01-07T04:27:17;7.60;99.90
63313;DHT22;49442;45.640;13.812;2024-01-07T04:29:42;7.60;99.90
63313;DHT22;49442;45.640;13.812;2024-01-07T04:32:08;7.60;99.90
63313;DHT22;49442;45.640;13.812;2024-01-07T04:34:34;7.60;99.90
63313;DHT22;49442;45.640;13.812;2024-01-07T04:36:59;7.60;99.90
63313;DHT22;49442;45.640;13.812;2024-01-07T04:39:25;7.60;99.90
63313;DHT22;49442;45.640;13.812;2024-01-07T04:41:51;7.60;99.90
63313;DHT22;49442;45.640;13.812;2024-01-07T04:44:17;7.60;99.90
63313;DHT22;49442;45.640;13.812;2024-01-07T04:46:43;7.60;99.90
63313;DHT22;49442;45.640;13.812;2024-01-07T04:49:08;7.60;99.90
63313;DHT22;49442;45.640;13.812;2024-01-07T04:51:34;7.60;99.90
63313;DHT22;49442;45.640;13.812;2024-01-07T04:54:01;7.70;99.90
63313;DHT22;49442;45.640;13.812;2024-01-07T04:56:27;7.70;99.90
63313;DHT22;49442;45.640;13.812;2024-01-07T04:58:53;7.70;99.90
63313;DHT22;49442;45.640;13.812;2024-01-07T05:01:18;7.70;99.90
63313;DHT22;49442;45.640;13.812;2024-01-07T05:03:44;7.70;99.90
63313;DHT22;49442;45.640;13.812;2024-01-07T05:06:10;7.70;99.90
63313;DHT22;49442;45.640;13.812;2024-01-07T05:08:37;7.70;99.90
63313;DHT22;49442;45.640;13.812;2024-01-07T05:11:03;7.70;99.90
63313;DHT22;49442;45.640;13.812;2024-01-07T05:13:30;7.60;99.90
63313;DHT22;49442;45.640;13.812;2024-01-07T05:15:55;7.60;99.90
63313;DHT22;49442;45.640;13.812;2024-01-07T05:18:22;7.70;99.90
63313;DHT22;49442;45.640;13.812;2024-01-07T05:20:48;7.70;99.90
63313;DHT22;49442;45.640;13.812;2024-01-07T05:23:14;7.60;99.90
63313;DHT22;49442;45.640;13.812;2024-01-07T05:25:41;7.70;99.90
63313;DHT22;49442;45.640;13.812;2024-01-07T05:28:07;7.60;99.90
63313;DHT22;49442;45.640;13.812;2024-01-07T05:30:33;7.70;99.90
63313;DHT22;49442;45.640;13.812;2024-01-07T05:32:59;7.70;99.90
63313;DHT22;49442;45.640;13.812;2024-01-07T05:35:24;7.70;99.90
63313;DHT22;49442;45.640;13.812;2024-01-07T05:37:50;7.70;99.90
63313;DHT22;49442;45.640;13.812;2024-01-07T05:40:16;7.60;99.90
63313;DHT22;49442;45.640;13.812;2024-01-07T05:42:41;7.70;99.90
63313;DHT22;49442;45.640;13.812;2024-01-07T05:45:07;7.60;99.90
63313;DHT22;49442;45.640;13.812;2024-01-07T05:47:33;7.60;99.90
63313;DHT22;49442;45.640;13.812;2024-01-07T05:49:59;7.60;99.90
63313;DHT22;49442;45.640;13.812;2024-01-07T05:52:24;7.60;99.90
63313;DHT22;49442;45.640;13.812;2024-01-07T05:54:50;7.60;99.90
63313;DHT22;49442;45.640;13.812;2024-01-07T05:57:16;7.70;99.90
63313;DHT22;49442;45.640;13.812;2024-01-07T05:59:44;7.60;99.90
63313;DHT22;49442;45.640;13.812;2024-01-07T06:02:09;7.70;99.90
63313;DHT22;49442;45.640;13.812;2024-01-07T06:04:37;7.70;99.90
63313;DHT22;49442;45.640;13.812;2024-01-07T06:07:03;7.70;99.90
63313;DHT22;49442;45.640;13.812;2024-01-07T06:09:29;7.80;99.90
63313;DHT22;49442;45.640;13.812;2024-01-07T06:11:55;7.80;99.90
63313;DHT22;49442;45.640;13.812;2024-01-07T06:14:22;7.80;99.90
63313;DHT22;49442;45.640;13.812;2024-01-07T06:16:47;7.80;99.90
63313;DHT22;49442;45.640;13.812;2024-01-07T06:19:13;7.80;99.90
63313;DHT22;49442;45.640;13.812;2024-01-07T06:21:40;7.90;99.90
63313;DHT22;49442;45.640;13.812;2024-01-07T06:24:08;7.90;99.90
63313;DHT22;49442;45.640;13.812;2024-01-07T06:26:33;7.90;99.90
63313;DHT22;49442;45.640;13.812;2024-01-07T06:28:59;7.90;99.90
63313;DHT22;49442;45.640;13.812;2024-01-07T06:31:25;7.90;99.90
63313;DHT22;49442;45.640;13.812;2024-01-07T06:33:51;7.90;99.90
63313;DHT22;49442;45.640;13.812;2024-01-07T06:36:17;7.90;99.90
63313;DHT22;49442;45.640;13.812;2024-01-07T06:38:43;7.90;99.90
63313;DHT22;49442;45.640;13.812;2024-01-07T06:41:12;7.90;99.90
63313;DHT22;49442;45.640;13.812;2024-01-07T06:43:38;7.90;99.90
63313;DHT22;49442;45.640;13.812;2024-01-07T06:46:04;7.90;99.90
63313;DHT22;49442;45.640;13.812;2024-01-07T06:48:30;7.90;99.90
63313;DHT22;49442;45.640;13.812;2024-01-07T06:50:55;7.90;99.90
63313;DHT22;49442;45.640;13.812;2024-01-07T06:53:21;7.90;99.90
63313;DHT22;49442;45.640;13.812;2024-01-07T06:55:47;7.90;99.90
63313;DHT22;49442;45.640;13.812;2024-01-07T06:58:13;7.90;99.90
63313;DHT22;49442;45.640;13.812;2024-01-07T07:00:39;7.90;99.90
63313;DHT22;49442;45.640;13.812;2024-01-07T07:03:04;7.90;99.90
63313;DHT22;49442;45.640;13.812;2024-01-07T07:05:31;7.90;99.90
63313;DHT22;49442;45.640;13.812;2024-01-07T07:07:57;7.90;99.90
63313;DHT22;49442;45.640;13.812;2024-01-07T07:10:24;7.90;99.90
63313;DHT22;49442;45.640;13.812;2024-01-07T07:12:49;7.90;99.90
63313;DHT22;49442;45.640;13.812;2024-01-07T07:15:18;7.90;99.90
63313;DHT22;49442;45.640;13.812;2024-01-07T07:17:44;7.80;99.90
63313;DHT22;49442;45.640;13.812;2024-01-07T07:20:10;7.90;99.90
63313;DHT22;49442;45.640;13.812;2024-01-07T07:22:36;7.80;99.90
63313;DHT22;49442;45.640;13.812;2024-01-07T07:25:02;7.90;99.90
63313;DHT22;49442;45.640;13.812;2024-01-07T07:27:28;7.90;99.90
63313;DHT22;49442;45.640;13.812;2024-01-07T07:29:53;7.90;99.90
63313;DHT22;49442;45.640;13.812;2024-01-07T07:32:19;7.90;99.90
63313;DHT22;49442;45.640;13.812;2024-01-07T07:34:46;7.90;99.90
63313;DHT22;49442;45.640;13.812;2024-01-07T07:37:13;8.00;99.90
63313;DHT22;49442;45.640;13.812;2024-01-07T07:39:38;7.90;99.90
63313;DHT22;49442;45.640;13.812;2024-01-07T07:42:04;8.00;99.90
63313;DHT22;49442;45.640;13.812;2024-01-07T07:44:30;8.00;99.90
63313;DHT22;49442;45.640;13.812;2024-01-07T07:46:58;8.00;99.90
63313;DHT22;49442;45.640;13.812;2024-01-07T07:49:24;7.90;99.90
63313;DHT22;49442;45.640;13.812;2024-01-07T07:51:50;8.00;99.90
63313;DHT22;49442;45.640;13.812;2024-01-07T07:54:16;8.00;99.90
63313;DHT22;49442;45.640;13.812;2024-01-07T07:56:42;8.00;99.90
63313;DHT22;49442;45.640;13.812;2024-01-07T07:59:08;8.00;99.90
63313;DHT22;49442;45.640;13.812;2024-01-07T08:01:34;8.00;99.90
63313;DHT22;49442;45.640;13.812;2024-01-07T08:04:00;8.10;99.90
63313;DHT22;49442;45.640;13.812;2024-01-07T08:06:28;8.10;99.90
63313;DHT22;49442;45.640;13.812;2024-01-07T08:08:53;8.10;99.90
63313;DHT22;49442;45.640;13.812;2024-01-07T08:11:20;8.00;99.90
63313;DHT22;49442;45.640;13.812;2024-01-07T08:13:46;8.10;99.90
63313;DHT22;49442;45.640;13.812;2024-01-07T08:16:11;8.10;99.90
63313;DHT22;49442;45.640;13.812;2024-01-07T08:18:37;8.20;99.90
63313;DHT22;49442;45.640;13.812;2024-01-07T08:21:03;8.20;99.90
63313;DHT22;49442;45.640;13.812;2024-01-07T08:23:29;8.20;99.90
63313;DHT22;49442;45.640;13.812;2024-01-07T08:25:54;8.20;99.90
63313;DHT22;49442;45.640;13.812;2024-01-07T08:28:21;8.20;99.90
63313;DHT22;49442;45.640;13.812;2024-01-07T08:30:47;8.20;99.90
63313;DHT22;49442;45.640;13.812;2024-01-07T08:33:13;8.30;99.90
63313;DHT22;49442;45.640;13.812;2024-01-07T08:35:38;8.30;99.90
63313;DHT22;49442;45.640;13.812;2024-01-07T08:38:04;8.30;99.90
63313;DHT22;49442;45.640;13.812;2024-01-07T08:40:30;8.30;99.90
63313;DHT22;49442;45.640;13.812;2024-01-07T08:42:56;8.40;99.90
63313;DHT22;49442;45.640;13.812;2024-01-07T08:45:22;8.40;99.90
63313;DHT22;49442;45.640;13.812;2024-01-07T08:47:48;8.40;99.90
63313;DHT22;49442;45.640;13.812;2024-01-07T08:50:13;8.50;99.90
63313;DHT22;49442;45.640;13.812;2024-01-07T08:52:39;8.50;99.90
63313;DHT22;49442;45.640;13.812;2024-01-07T08:55:05;8.50;99.90
63313;DHT22;49442;45.640;13.812;2024-01-07T08:57:33;8.50;99.90
63313;DHT22;49442;45.640;13.812;2024-01-07T08:59:58;8.50;99.90
63313;DHT22;49442;45.640;13.812;2024-01-07T09:02:24;8.50;99.90
63313;DHT22;49442;45.640;13.812;2024-01-07T09:04:50;8.50;99.90
63313;DHT22;49442;45.640;13.812;2024-01-07T09:07:17;8.60;99.90
63313;DHT22;49442;45.640;13.812;2024-01-07T09:09:44;8.50;99.90
63313;DHT22;49442;45.640;13.812;2024-01-07T09:12:10;8.50;99.90
63313;DHT22;49442;45.640;13.812;2024-01-07T09:14:37;8.60;99.90
63313;DHT22;49442;45.640;13.812;2024-01-07T09:17:03;8.50;99.90
63313;DHT22;49442;45.640;13.812;2024-01-07T09:19:28;8.50;99.90
63313;DHT22;49442;45.640;13.812;2024-01-07T09:21:55;8.50;99.90
63313;DHT22;49442;45.640;13.812;2024-01-07T09:24:20;8.60;99.90
63313;DHT22;49442;45.640;13.812;2024-01-07T09:26:46;8.60;99.90
63313;DHT22;49442;45.640;13.812;2024-01-07T09:29:12;8.60;99.90
63313;DHT22;49442;45.640;13.812;2024-01-07T09:31:39;8.60;99.90
63313;DHT22;49442;45.640;13.812;2024-01-07T09:34:05;8.60;99.90
63313;DHT22;49442;45.640;13.812;2024-01-07T09:36:32;8.60;99.90
63313;DHT22;49442;45.640;13.812;2024-01-07T09:38:58;8.60;99.90
63313;DHT22;49442;45.640;13.812;2024-01-07T09:41:24;8.60;99.90
63313;DHT22;49442;45.640;13.812;2024-01-07T09:43:51;8.60;99.90
63313;DHT22;49442;45.640;13.812;2024-01-07T09:46:17;8.60;99.90
63313;DHT22;49442;45.640;13.812;2024-01-07T09:48:43;8.70;99.90
63313;DHT22;49442;45.640;13.812;2024-01-07T09:51:10;8.60;99.90
63313;DHT22;49442;45.640;13.812;2024-01-07T09:53:38;8.60;99.90
63313;DHT22;49442;45.640;13.812;2024-01-07T09:58:41;8.70;99.90
63313;DHT22;49442;45.640;13.812;2024-01-07T10:01:08;8.70;99.90
63313;DHT22;49442;45.640;13.812;2024-01-07T10:03:34;8.70;99.90
63313;DHT22;49442;45.640;13.812;2024-01-07T10:05:59;8.70;99.90
63313;DHT22;49442;45.640;13.812;2024-01-07T10:08:25;8.70;99.90
63313;DHT22;49442;45.640;13.812;2024-01-07T10:10:51;8.70;99.90
63313;DHT22;49442;45.640;13.812;2024-01-07T10:13:16;8.70;99.90
63313;DHT22;49442;45.640;13.812;2024-01-07T10:15:42;8.80;99.90
63313;DHT22;49442;45.640;13.812;2024-01-07T10:18:08;8.80;99.90
63313;DHT22;49442;45.640;13.812;2024-01-07T10:20:34;8.70;99.90
63313;DHT22;49442;45.640;13.812;2024-01-07T10:23:03;8.70;99.90
63313;DHT22;49442;45.640;13.812;2024-01-07T10:25:32;8.70;99.90
63313;DHT22;49442;45.640;13.812;2024-01-07T10:28:01;8.70;99.90
63313;DHT22;49442;45.640;13.812;2024-01-07T10:30:28;8.70;99.90
63313;DHT22;49442;45.640;13.812;2024-01-07T10:32:56;8.70;99.90
63313;DHT22;49442;45.640;13.812;2024-01-07T10:35:27;8.70;99.90
63313;DHT22;49442;45.640;13.812;2024-01-07T10:37:53;8.70;99.90
63313;DHT22;49442;45.640;13.812;2024-01-07T10:40:19;8.70;99.90
63313;DHT22;49442;45.640;13.812;2024-01-07T10:42:46;8.80;99.90
63313;DHT22;49442;45.640;13.812;2024-01-07T10:45:11;8.70;99.90
63313;DHT22;49442;45.640;13.812;2024-01-07T10:47:40;8.80;99.90
63313;DHT22;49442;45.640;13.812;2024-01-07T10:50:08;8.80;99.90
63313;DHT22;49442;45.640;13.812;2024-01-07T10:52:39;8.80;99.90
63313;DHT22;49442;45.640;13.812;2024-01-07T10:55:09;8.80;99.90
63313;DHT22;49442;45.640;13.812;2024-01-07T10:57:48;8.80;99.90
63313;DHT22;49442;45.640;13.812;2024-01-07T11:00:16;8.80;99.90
63313;DHT22;49442;45.640;13.812;2024-01-07T11:05:56;8.80;99.90
63313;DHT22;49442;45.640;13.812;2024-01-07T11:08:33;8.90;99.90
63313;DHT22;49442;45.640;13.812;2024-01-07T11:11:26;8.90;99.90
63313;DHT22;49442;45.640;13.812;2024-01-07T11:13:53;9.00;99.90
63313;DHT22;49442;45.640;13.812;2024-01-07T11:16:48;9.00;99.90
63313;DHT22;49442;45.640;13.812;2024-01-07T11:19:13;9.00;99.90
63313;DHT22;49442;45.640;13.812;2024-01-07T11:21:40;9.00;99.90
63313;DHT22;49442;45.640;13.812;2024-01-07T11:24:06;9.10;99.90
63313;DHT22;49442;45.640;13.812;2024-01-07T11:26:31;9.10;99.90
63313;DHT22;49442;45.640;13.812;2024-01-07T11:28:57;9.10;99.90
63313;DHT22;49442;45.640;13.812;2024-01-07T11:34:08;9.20;99.90
63313;DHT22;49442;45.640;13.812;2024-01-07T11:36:37;9.20;99.90
63313;DHT22;49442;45.640;13.812;2024-01-07T11:39:04;9.20;99.90
63313;DHT22;49442;45.640;13.812;2024-01-07T11:41:34;9.20;99.90
63313;DHT22;49442;45.640;13.812;2024-01-07T11:44:01;9.20;99.90
63313;DHT22;49442;45.640;13.812;2024-01-07T11:46:28;9.20;99.90
63313;DHT22;49442;45.640;13.812;2024-01-07T11:48:57;9.20;99.90
63313;DHT22;49442;45.640;13.812;2024-01-07T11:51:29;9.20;99.90
63313;DHT22;49442;45.640;13.812;2024-01-07T11:53:59;9.20;99.90
63313;DHT22;49442;45.640;13.812;2024-01-07T11:56:26;9.20;99.90
63313;DHT22;49442;45.640;13.812;2024-01-07T11:58:51;9.20;99.90
63313;DHT22;49442;45.640;13.812;2024-01-07T12:01:18;9.20;99.90
63313;DHT22;49442;45.640;13.812;2024-01-07T12:03:45;9.20;99.90
63313;DHT22;49442;45.640;13.812;2024-01-07T12:06:11;9.10;99.90
63313;DHT22;49442;45.640;13.812;2024-01-07T12:08:41;9.10;99.90
63313;DHT22;49442;45.640;13.812;2024-01-07T12:11:08;9.10;99.90
63313;DHT22;49442;45.640;13.812;2024-01-07T12:13:35;9.10;99.90
63313;DHT22;49442;45.640;13.812;2024-01-07T12:16:01;9.10;99.90
63313;DHT22;49442;45.640;13.812;2024-01-07T12:18:27;9.10;99.90
63313;DHT22;49442;45.640;13.812;2024-01-07T12:20:57;9.10;99.90
63313;DHT22;49442;45.640;13.812;2024-01-07T12:23:27;9.10;99.90
63313;DHT22;49442;45.640;13.812;2024-01-07T12:25:54;9.10;99.90
63313;DHT22;49442;45.640;13.812;2024-01-07T12:28:21;9.10;99.90
63313;DHT22;49442;45.640;13.812;2024-01-07T12:30:50;9.10;99.90
63313;DHT22;49442;45.640;13.812;2024-01-07T12:33:22;9.10;99.90
63313;DHT22;49442;45.640;13.812;2024-01-07T12:35:47;9.10;99.90
63313;DHT22;49442;45.640;13.812;2024-01-07T12:38:13;9.10;99.90
63313;DHT22;49442;45.640;13.812;2024-01-07T12:40:40;9.10;99.90
63313;DHT22;49442;45.640;13.812;2024-01-07T12:43:06;9.10;99.90
63313;DHT22;49442;45.640;13.812;2024-01-07T12:45:33;9.20;99.90
63313;DHT22;49442;45.640;13.812;2024-01-07T12:47:58;9.20;99.90
63313;DHT22;49442;45.640;13.812;2024-01-07T12:50:28;9.20;99.90
63313;DHT22;49442;45.640;13.812;2024-01-07T12:52:55;9.20;99.90
63313;DHT22;49442;45.640;13.812;2024-01-07T12:55:22;9.20;99.90
63313;DHT22;49442;45.640;13.812;2024-01-07T12:57:48;9.20;99.90
63313;DHT22;49442;45.640;13.812;2024-01-07T13:00:15;9.20;99.90
63313;DHT22;49442;45.640;13.812;2024-01-07T13:02:41;9.20;99.90
63313;DHT22;49442;45.640;13.812;2024-01-07T13:05:07;9.20;99.90
63313;DHT22;49442;45.640;13.812;2024-01-07T13:07:33;9.30;99.90
63313;DHT22;49442;45.640;13.812;2024-01-07T13:09:58;9.30;99.90
63313;DHT22;49442;45.640;13.812;2024-01-07T13:12:25;9.40;99.90
63313;DHT22;49442;45.640;13.812;2024-01-07T13:14:52;9.40;99.90
63313;DHT22;49442;45.640;13.812;2024-01-07T13:17:18;9.50;99.90
63313;DHT22;49442;45.640;13.812;2024-01-07T13:19:44;9.40;99.90
63313;DHT22;49442;45.640;13.812;2024-01-07T13:22:10;9.40;99.90
63313;DHT22;49442;45.640;13.812;2024-01-07T13:24:36;9.40;99.90
63313;DHT22;49442;45.640;13.812;2024-01-07T13:27:02;9.30;99.90
63313;DHT22;49442;45.640;13.812;2024-01-07T13:29:28;9.30;99.90
63313;DHT22;49442;45.640;13.812;2024-01-07T13:31:53;9.20;99.90
63313;DHT22;49442;45.640;13.812;2024-01-07T13:34:19;9.20;99.90
63313;DHT22;49442;45.640;13.812;2024-01-07T13:36:45;9.20;99.90
63313;DHT22;49442;45.640;13.812;2024-01-07T13:39:12;9.10;99.90
63313;DHT22;49442;45.640;13.812;2024-01-07T13:41:37;9.20;99.90
63313;DHT22;49442;45.640;13.812;2024-01-07T13:44:04;9.10;99.90
63313;DHT22;49442;45.640;13.812;2024-01-07T13:46:30;9.10;99.90
63313;DHT22;49442;45.640;13.812;2024-01-07T13:48:55;9.10;99.90
63313;DHT22;49442;45.640;13.812;2024-01-07T13:51:21;9.10;99.90
63313;DHT22;49442;45.640;13.812;2024-01-07T13:53:47;9.10;99.90
63313;DHT22;49442;45.640;13.812;2024-01-07T13:56:13;9.10;99.90
63313;DHT22;49442;45.640;13.812;2024-01-07T13:58:38;9.10;99.90
63313;DHT22;49442;45.640;13.812;2024-01-07T14:01:04;9.10;99.90
63313;DHT22;49442;45.640;13.812;2024-01-07T14:03:33;9.00;99.90
63313;DHT22;49442;45.640;13.812;2024-01-07T14:05:59;9.10;99.90
63313;DHT22;49442;45.640;13.812;2024-01-07T14:08:26;9.00;99.90
63313;DHT22;49442;45.640;13.812;2024-01-07T14:10:52;9.00;99.90
63313;DHT22;49442;45.640;13.812;2024-01-07T14:13:17;9.00;99.90
63313;DHT22;49442;45.640;13.812;2024-01-07T14:15:44;8.90;99.90
63313;DHT22;49442;45.640;13.812;2024-01-07T14:18:10;9.00;99.90
63313;DHT22;49442;45.640;13.812;2024-01-07T14:20:40;9.00;99.90
63313;DHT22;49442;45.640;13.812;2024-01-07T14:23:06;8.90;99.90
63313;DHT22;49442;45.640;13.812;2024-01-07T14:25:31;8.90;99.90
63313;DHT22;49442;45.640;13.812;2024-01-07T14:27:57;9.00;99.90
63313;DHT22;49442;45.640;13.812;2024-01-07T14:30:23;9.00;99.90
63313;DHT22;49442;45.640;13.812;2024-01-07T14:32:48;8.90;99.90
63313;DHT22;49442;45.640;13.812;2024-01-07T14:35:16;8.90;99.90
63313;DHT22;49442;45.640;13.812;2024-01-07T14:37:41;8.90;99.90
63313;DHT22;49442;45.640;13.812;2024-01-07T14:40:08;8.90;99.90
63313;DHT22;49442;45.640;13.812;2024-01-07T14:42:33;8.90;99.90
63313;DHT22;49442;45.640;13.812;2024-01-07T14:44:59;8.90;99.90
63313;DHT22;49442;45.640;13.812;2024-01-07T14:47:25;8.90;99.90
63313;DHT22;49442;45.640;13.812;2024-01-07T14:49:51;8.80;99.90
63313;DHT22;49442;45.640;13.812;2024-01-07T14:52:16;8.90;99.90
63313;DHT22;49442;45.640;13.812;2024-01-07T14:54:42;8.80;99.90
63313;DHT22;49442;45.640;13.812;2024-01-07T14:57:08;8.80;99.90
63313;DHT22;49442;45.640;13.812;2024-01-07T14:59:35;8.80;99.90
63313;DHT22;49442;45.640;13.812;2024-01-07T15:02:03;8.80;99.90
63313;DHT22;49442;45.640;13.812;2024-01-07T15:04:29;8.80;99.90
63313;DHT22;49442;45.640;13.812;2024-01-07T15:06:55;8.80;99.90
63313;DHT22;49442;45.640;13.812;2024-01-07T15:09:22;8.80;99.90
63313;DHT22;49442;45.640;13.812;2024-01-07T15:11:48;8.80;99.90
63313;DHT22;49442;45.640;13.812;2024-01-07T15:14:14;8.80;99.90
63313;DHT22;49442;45.640;13.812;2024-01-07T15:16:40;8.80;99.90
63313;DHT22;49442;45.640;13.812;2024-01-07T15:19:06;8.80;99.90
63313;DHT22;49442;45.640;13.812;2024-01-07T15:21:32;8.80;99.90
63313;DHT22;49442;45.640;13.812;2024-01-07T15:23:57;8.80;99.90
63313;DHT22;49442;45.640;13.812;2024-01-07T15:26:23;8.80;99.90
63313;DHT22;49442;45.640;13.812;2024-01-07T15:28:49;8.80;99.90
63313;DHT22;49442;45.640;13.812;2024-01-07T15:31:15;8.80;99.90
63313;DHT22;49442;45.640;13.812;2024-01-07T15:33:41;8.80;99.90